Time;durP1;ratioP1;P1;durP2;ratioP2;P2;SDS_P1;SDS_P2;PMS_P1;PMS_P2;Temp;Humidity;BMP_temperature;BMP_pressure;BME280_temperature;BME280_humidity;BME280_pressure;Samples;Min_cycle;Max_cycle;Signal;HPM_P1;HPM_P2
2021/06/30 00:00:13;;;;;;;;;6.25;6.25;;;;;24.29;46.86;101026.91;5026737;28;51709;-43
2021/06/30 00:02:38;;;;;;;;;5.50;5.50;;;;;24.28;47.04;101023.28;5016597;28;51273;-42
2021/06/30 00:05:05;;;;;;;;;6.25;5.25;;;;;24.28;46.93;101020.53;5013073;28;51103;-43
2021/06/30 00:07:32;;;;;;;;;5.50;5.00;;;;;24.28;46.71;101022.41;5013115;28;51152;-44
2021/06/30 00:09:57;;;;;;;;;7.75;6.00;;;;;24.27;47.03;101021.59;5012266;28;51102;-44
2021/06/30 00:12:22;;;;;;;;;7.00;5.00;;;;;24.27;47.15;101032.66;5014927;28;51126;-41
2021/06/30 00:14:48;;;;;;;;;4.75;4.75;;;;;24.28;47.31;101027.97;5028065;28;51154;-41
2021/06/30 00:17:14;;;;;;;;;5.75;5.75;;;;;24.29;46.97;101029.66;5016501;28;51324;-42
2021/06/30 00:19:39;;;;;;;;;7.50;5.75;;;;;24.28;47.01;101025.19;5019942;28;52095;-40
2021/06/30 00:22:05;;;;;;;;;6.75;5.75;;;;;24.27;47.17;101032.66;5014477;28;51031;-41
2021/06/30 00:24:31;;;;;;;;;6.00;6.00;;;;;24.28;46.95;101025.19;5014156;28;51049;-48
2021/06/30 00:26:56;;;;;;;;;7.00;6.00;;;;;24.27;46.89;101015.19;5021729;27;51375;-44
2021/06/30 00:29:21;;;;;;;;;6.25;5.50;;;;;24.27;47.14;101015.19;5019936;27;51956;-41
2021/06/30 00:31:47;;;;;;;;;5.25;4.50;;;;;24.26;47.08;101019.06;5018120;27;51036;-42
2021/06/30 00:34:13;;;;;;;;;7.75;6.50;;;;;24.27;47.21;101020.75;5018214;28;51073;-43
2021/06/30 00:36:44;;;;;;;;;7.25;5.00;;;;;24.27;47.48;101018.81;5015245;28;50994;-41
2021/06/30 00:39:10;;;;;;;;;4.00;4.00;;;;;24.26;47.45;101019.06;5012762;28;52976;-41
2021/06/30 00:41:35;;;;;;;;;7.00;5.00;;;;;24.27;47.25;101023.50;5014954;28;52291;-43
2021/06/30 00:44:01;;;;;;;;;3.50;3.00;;;;;24.27;47.09;101015.19;5015687;28;51023;-43
2021/06/30 00:46:32;;;;;;;;;5.00;4.00;;;;;24.25;46.96;101020.16;5017970;28;51025;-43
2021/06/30 00:48:58;;;;;;;;;4.75;4.75;;;;;24.25;47.48;101018.22;5022061;28;51105;-43
2021/06/30 00:51:25;;;;;;;;;7.25;6.25;;;;;24.25;46.92;101018.22;5017028;28;51317;-44
2021/06/30 00:53:51;;;;;;;;;6.00;5.00;;;;;24.25;47.55;101025.69;5015500;28;51035;-44
2021/06/30 00:56:22;;;;;;;;;5.25;5.25;;;;;24.26;47.29;101016.28;5014786;28;51346;-43
2021/06/30 00:58:50;;;;;;;;;3.75;3.75;;;;;24.25;47.47;101018.22;5015871;28;51106;-43
2021/06/30 01:01:15;;;;;;;;;6.00;4.00;;;;;24.26;47.33;101024.59;5014498;28;51093;-44
2021/06/30 01:03:40;;;;;;;;;4.50;4.00;;;;;24.25;47.03;101021.00;5017154;28;51177;-43
2021/06/30 01:06:06;;;;;;;;;6.00;6.00;;;;;24.25;47.53;101034.84;5018279;27;51070;-43
2021/06/30 01:08:31;;;;;;;;;3.00;3.00;;;;;24.24;47.39;101035.91;5032405;28;51830;-43
2021/06/30 01:10:56;;;;;;;;;6.25;3.25;;;;;24.25;47.51;101020.16;5017433;28;51206;-43
2021/06/30 01:13:22;;;;;;;;;4.50;3.00;;;;;24.24;47.03;101022.06;5014531;28;51114;-43
2021/06/30 01:15:55;;;;;;;;;4.00;4.00;;;;;24.24;47.56;101019.31;5014935;27;51014;-43
2021/06/30 01:18:25;;;;;;;;;3.75;3.75;;;;;24.23;47.02;101016.78;5015600;28;51778;-44
2021/06/30 01:20:51;;;;;;;;;4.50;4.50;;;;;24.24;47.21;101016.53;5019472;28;51221;-43
2021/06/30 01:23:17;;;;;;;;;4.00;2.75;;;;;24.23;47.56;101020.41;5018524;27;51109;-44
2021/06/30 01:25:43;;;;;;;;;4.00;3.50;;;;;24.23;47.36;101016.78;5015679;28;51444;-43
2021/06/30 01:28:09;;;;;;;;;3.00;3.00;;;;;24.23;47.73;101025.94;5037487;27;51285;-43
2021/06/30 01:30:34;;;;;;;;;4.50;2.75;;;;;24.23;47.59;101023.16;5014854;28;51050;-44
2021/06/30 01:33:00;;;;;;;;;5.00;3.50;;;;;24.22;47.55;101015.94;5014630;28;51071;-43
2021/06/30 01:35:27;;;;;;;;;3.50;3.50;;;;;24.23;47.51;101019.56;5014643;27;51145;-44
2021/06/30 01:37:53;;;;;;;;;6.25;3.50;;;;;24.22;47.57;101013.19;5015591;28;50958;-46
2021/06/30 01:40:20;;;;;;;;;5.75;4.00;;;;;24.22;47.54;101017.88;5017040;28;50979;-43
2021/06/30 01:42:47;;;;;;;;;3.00;3.00;;;;;24.22;47.52;101015.13;5029481;27;51250;-42
2021/06/30 01:45:13;;;;;;;;;3.25;3.25;;;;;24.22;47.36;101020.66;5023450;27;51073;-44
2021/06/30 01:47:39;;;;;;;;;3.00;3.00;;;;;24.22;47.33;101013.19;5016642;28;52367;-44
2021/06/30 01:50:06;;;;;;;;;2.25;2.25;;;;;24.21;47.51;101022.56;5018353;28;51109;-43
2021/06/30 01:52:31;;;;;;;;;3.00;3.00;;;;;24.21;47.18;101016.19;5015943;27;51124;-44
2021/06/30 01:54:57;;;;;;;;;2.25;2.00;;;;;24.20;47.33;101018.13;5015453;28;51101;-41
2021/06/30 01:57:23;;;;;;;;;4.25;4.00;;;;;24.20;47.37;101020.91;5023946;27;51050;-44
2021/06/30 01:59:48;;;;;;;;;2.25;2.25;;;;;24.19;47.68;101022.81;5015318;27;51116;-43
2021/06/30 02:02:14;;;;;;;;;3.50;1.75;;;;;24.19;47.67;101020.06;5014100;28;51060;-44
2021/06/30 02:04:41;;;;;;;;;3.25;3.25;;;;;24.18;47.59;101029.44;5013935;27;51085;-41
2021/06/30 02:07:07;;;;;;;;;4.50;3.50;;;;;24.19;47.60;101024.75;5013267;28;52129;-43
2021/06/30 02:09:32;;;;;;;;;2.00;2.00;;;;;24.18;47.35;101034.97;5014136;28;51461;-42
2021/06/30 02:11:58;;;;;;;;;1.75;1.75;;;;;24.18;47.57;101029.44;5018323;28;51185;-43
2021/06/30 02:14:24;;;;;;;;;2.00;2.00;;;;;24.17;47.43;101029.66;5024606;28;51616;-42
2021/06/30 02:16:49;;;;;;;;;2.50;2.50;;;;;24.17;47.65;101030.50;5029279;28;51802;-42
2021/06/30 02:19:14;;;;;;;;;2.00;2.00;;;;;24.18;47.49;101034.13;5023283;27;51059;-44
2021/06/30 02:21:41;;;;;;;;;4.50;2.00;;;;;24.16;47.68;101026.06;5014404;28;51381;-46
2021/06/30 02:24:06;;;;;;;;;3.00;2.00;;;;;24.16;47.71;101034.34;5014268;27;51138;-44
2021/06/30 02:26:34;;;;;;;;;4.00;4.00;;;;;24.17;47.67;101037.97;5014064;28;51002;-44
2021/06/30 02:28:59;;;;;;;;;4.00;4.00;;;;;24.16;47.63;101039.88;5022627;27;51215;-44
2021/06/30 02:31:25;;;;;;;;;4.25;3.75;;;;;24.15;47.71;101040.13;5016217;28;51245;-45
2021/06/30 02:33:51;;;;;;;;;4.00;4.00;;;;;24.16;47.58;101036.28;5012767;28;50957;-43
2021/06/30 02:36:17;;;;;;;;;3.50;2.50;;;;;24.14;47.34;101033.75;5013141;27;51211;-44
2021/06/30 02:38:43;;;;;;;;;2.75;2.75;;;;;24.14;47.56;101042.06;5028345;28;51104;-43
2021/06/30 02:41:08;;;;;;;;;5.50;3.75;;;;;24.14;47.86;101044.00;5029010;28;50991;-43
2021/06/30 02:43:34;;;;;;;;;5.00;3.75;;;;;24.14;47.78;101044.00;5014004;28;51168;-43
2021/06/30 02:45:59;;;;;;;;;3.25;3.00;;;;;24.13;47.48;101031.25;5016392;27;51003;-43
2021/06/30 02:48:25;;;;;;;;;4.50;3.50;;;;;24.14;47.82;101050.38;5020995;28;50951;-45
2021/06/30 02:50:52;;;;;;;;;3.00;3.00;;;;;24.14;47.56;101038.47;5014744;28;51249;-43
2021/06/30 02:53:18;;;;;;;;;3.00;3.00;;;;;24.12;47.85;101044.25;5013515;28;51088;-46
2021/06/30 02:55:43;;;;;;;;;5.50;3.25;;;;;24.11;47.75;101045.31;5013056;28;51185;-47
2021/06/30 02:58:08;;;;;;;;;2.75;2.75;;;;;24.12;47.79;101051.69;5013597;28;51077;-43
2021/06/30 03:00:34;;;;;;;;;5.25;4.75;;;;;24.12;47.51;101044.25;5012303;28;51320;-44
2021/06/30 03:02:59;;;;;;;;;5.00;5.00;;;;;24.12;48.00;101046.16;5015883;27;50942;-44
2021/06/30 03:05:24;;;;;;;;;4.00;4.00;;;;;24.12;47.66;101051.69;5016374;28;51121;-44
2021/06/30 03:07:51;;;;;;;;;4.75;3.75;;;;;24.11;47.42;101056.41;5012606;28;51196;-43
2021/06/30 03:10:18;;;;;;;;;6.75;5.50;;;;;24.10;47.55;101046.41;5012902;28;50974;-42
2021/06/30 03:12:44;;;;;;;;;6.75;4.25;;;;;24.09;47.54;101047.50;5026502;28;51013;-42
2021/06/30 03:15:10;;;;;;;;;5.00;5.00;;;;;24.09;47.87;101052.19;5023908;28;51515;-42
2021/06/30 03:17:36;;;;;;;;;6.00;3.00;;;;;24.09;47.57;101050.25;5013411;28;51284;-42
2021/06/30 03:20:10;;;;;;;;;7.75;5.75;;;;;24.08;47.64;101054.13;5015672;28;51251;-43
2021/06/30 03:22:39;;;;;;;;;6.25;6.00;;;;;24.08;47.43;101059.66;5015930;28;51366;-41
2021/06/30 03:25:10;;;;;;;;;7.00;6.00;;;;;24.07;47.43;101055.22;5021787;28;51996;-43
2021/06/30 03:27:37;;;;;;;;;5.25;4.00;;;;;24.07;47.33;101057.97;5039669;27;51335;-43
2021/06/30 03:30:07;;;;;;;;;3.75;3.25;;;;;24.05;47.54;101057.34;5012878;28;51134;-42
2021/06/30 03:32:32;;;;;;;;;5.75;4.00;;;;;24.05;47.50;101060.13;5012838;28;51086;-45
2021/06/30 03:34:58;;;;;;;;;6.00;5.00;;;;;24.05;47.53;101064.81;5012716;28;51107;-42
2021/06/30 03:37:23;;;;;;;;;9.00;5.50;;;;;24.05;47.50;101056.50;5015456;28;51276;-46
2021/06/30 03:39:49;;;;;;;;;5.75;4.75;;;;;24.03;47.83;101056.75;5017677;28;50920;-43
2021/06/30 03:42:14;;;;;;;;;6.00;4.50;;;;;24.04;47.79;101063.13;5015412;28;50959;-42
2021/06/30 03:44:40;;;;;;;;;8.00;4.25;;;;;24.03;47.52;101062.28;5011478;27;51113;-42
2021/06/30 03:47:06;;;;;;;;;5.25;4.00;;;;;24.03;47.50;101058.69;5012668;27;51157;-43
2021/06/30 03:49:31;;;;;;;;;7.00;7.00;;;;;24.04;47.67;101065.91;5016981;28;51098;-43
2021/06/30 03:51:56;;;;;;;;;7.00;5.75;;;;;24.03;47.70;101069.75;5015152;28;51426;-43
2021/06/30 03:54:25;;;;;;;;;7.00;6.00;;;;;24.02;47.32;101068.91;5013893;28;51908;-44
2021/06/30 03:56:51;;;;;;;;;8.50;5.25;;;;;24.02;47.42;101065.31;5016338;27;51508;-41
2021/06/30 03:59:17;;;;;;;;;6.25;6.00;;;;;24.01;47.32;101066.38;5015744;28;51197;-42
2021/06/30 04:01:42;;;;;;;;;6.25;6.25;;;;;24.01;47.40;101074.69;5013415;28;51276;-42
2021/06/30 04:04:11;;;;;;;;;5.00;5.00;;;;;24.01;47.10;101071.91;5015529;28;51317;-41
2021/06/30 04:06:38;;;;;;;;;7.75;7.00;;;;;24.01;47.25;101071.91;5014920;27;51189;-41
2021/06/30 04:09:04;;;;;;;;;7.75;7.75;;;;;24.01;47.41;101069.16;5018022;28;51111;-43
2021/06/30 04:11:29;;;;;;;;;5.00;4.50;;;;;24.01;47.09;101071.91;5019658;28;51198;-43
2021/06/30 04:13:54;;;;;;;;;8.25;6.75;;;;;23.99;47.36;101066.63;5018381;28;51896;-41
2021/06/30 04:16:20;;;;;;;;;8.75;8.25;;;;;24.01;47.19;101071.91;5015666;28;50935;-43
2021/06/30 04:18:45;;;;;;;;;6.50;5.75;;;;;24.00;47.14;101070.25;5014955;28;51204;-42
2021/06/30 04:21:10;;;;;;;;;7.75;6.75;;;;;23.98;47.33;101070.47;5019687;27;51267;-44
2021/06/30 04:23:36;;;;;;;;;6.00;5.75;;;;;23.98;47.43;101067.72;5016980;28;51071;-43
2021/06/30 04:26:03;;;;;;;;;7.00;6.00;;;;;23.98;47.13;101064.09;5015026;28;51045;-44
2021/06/30 04:28:28;;;;;;;;;8.50;6.50;;;;;23.98;47.27;101067.72;5031720;27;51139;-43
2021/06/30 04:30:54;;;;;;;;;6.00;5.00;;;;;23.98;47.38;101072.41;5033133;27;51306;-45
2021/06/30 04:33:19;;;;;;;;;8.00;8.00;;;;;23.97;47.12;101079.00;5015979;27;52663;-43
2021/06/30 04:35:44;;;;;;;;;6.75;5.75;;;;;23.96;47.05;101075.38;5021763;28;51168;-44
2021/06/30 04:38:10;;;;;;;;;11.00;6.75;;;;;23.95;47.46;101082.00;5029860;28;51030;-43
2021/06/30 04:40:35;;;;;;;;;9.00;5.25;;;;;23.96;47.13;101085.63;5013948;28;51093;-44
2021/06/30 04:43:00;;;;;;;;;5.25;5.25;;;;;23.95;47.17;101084.78;5015157;27;51907;-43
2021/06/30 04:45:26;;;;;;;;;6.00;6.00;;;;;23.94;47.16;101077.56;5017926;28;51298;-45
2021/06/30 04:47:51;;;;;;;;;6.50;5.75;;;;;23.94;47.46;101083.09;5019287;27;51138;-42
2021/06/30 04:50:16;;;;;;;;;6.75;6.50;;;;;23.93;46.87;101078.66;5016857;27;51092;-44
2021/06/30 04:52:42;;;;;;;;;6.00;6.00;;;;;23.94;47.04;101079.50;5020916;27;51729;-45
2021/06/30 04:55:08;;;;;;;;;7.00;5.00;;;;;23.93;47.50;101077.81;5019559;27;50921;-43
2021/06/30 04:57:35;;;;;;;;;7.25;6.25;;;;;23.93;46.92;101083.34;5014750;28;51308;-44
2021/06/30 05:00:00;;;;;;;;;6.75;5.75;;;;;23.91;47.17;101075.28;5014335;28;51383;-46
2021/06/30 05:02:26;;;;;;;;;11.00;7.75;;;;;23.92;47.00;101089.97;5018206;28;51881;-44
2021/06/30 05:04:51;;;;;;;;;4.25;4.25;;;;;23.90;47.50;101082.75;5020244;28;50966;-45
2021/06/30 05:07:16;;;;;;;;;6.00;6.00;;;;;23.91;47.49;101083.59;5016361;27;51241;-43
2021/06/30 05:09:42;;;;;;;;;5.75;5.25;;;;;23.90;47.38;101087.44;5013189;28;51194;-43
2021/06/30 05:12:07;;;;;;;;;10.00;4.25;;;;;23.89;47.33;101089.34;5014584;28;51368;-42
2021/06/30 05:14:33;;;;;;;;;5.00;5.00;;;;;23.88;46.92;101090.44;5013535;28;51075;-43
2021/06/30 05:17:00;;;;;;;;;4.25;3.00;;;;;23.89;47.27;101094.06;5015116;28;50997;-43
2021/06/30 05:19:25;;;;;;;;;5.00;5.00;;;;;23.87;47.31;101093.47;5014503;28;51002;-44
2021/06/30 05:21:50;;;;;;;;;4.25;4.25;;;;;23.86;47.07;101094.50;5017820;28;51043;-43
2021/06/30 05:24:16;;;;;;;;;5.25;4.25;;;;;23.87;47.13;101087.94;5016473;27;51007;-41
2021/06/30 05:26:41;;;;;;;;;6.00;4.50;;;;;23.85;47.28;101090.91;5014349;28;51102;-42
2021/06/30 05:29:06;;;;;;;;;5.00;5.00;;;;;23.84;47.55;101100.28;5039561;27;51171;-45
2021/06/30 05:31:32;;;;;;;;;5.50;5.00;;;;;23.82;47.11;101105.22;5014719;28;51799;-50
2021/06/30 05:33:57;;;;;;;;;5.25;4.00;;;;;23.79;47.55;101108.47;5015630;28;51032;-46
2021/06/30 05:36:23;;;;;;;;;8.75;4.50;;;;;23.78;47.37;101108.72;5015773;27;51282;-45
2021/06/30 05:38:49;;;;;;;;;4.25;3.75;;;;;23.77;47.56;101107.03;5016862;28;51029;-47
2021/06/30 05:41:14;;;;;;;;;9.25;6.75;;;;;23.75;47.60;101111.94;5016108;27;51027;-44
2021/06/30 05:43:39;;;;;;;;;5.25;4.25;;;;;23.75;47.06;101111.94;5014013;27;51110;-46
2021/06/30 05:46:05;;;;;;;;;5.50;4.50;;;;;23.74;47.90;101113.03;5016297;27;51169;-44
2021/06/30 05:48:31;;;;;;;;;4.00;4.00;;;;;23.73;48.08;101108.56;5030380;28;51295;-45
2021/06/30 05:50:56;;;;;;;;;3.75;3.00;;;;;23.73;47.35;101114.94;5018642;27;51132;-48
2021/06/30 05:53:22;;;;;;;;;4.00;4.00;;;;;23.74;47.31;101110.25;5014153;28;50988;-47
2021/06/30 05:55:47;;;;;;;;;3.00;3.00;;;;;23.75;47.47;101111.94;5017546;28;50904;-44
2021/06/30 05:58:13;;;;;;;;;4.00;4.00;;;;;23.73;47.79;101114.94;5016798;28;51089;-44
2021/06/30 06:00:38;;;;;;;;;4.25;4.25;;;;;23.73;47.96;101116.88;5014296;28;51604;-44
2021/06/30 06:03:04;;;;;;;;;5.00;4.00;;;;;23.72;47.67;101115.19;5014703;27;51019;-45
2021/06/30 06:05:29;;;;;;;;;3.00;3.00;;;;;23.73;47.65;101119.63;5013722;28;51156;-47
2021/06/30 06:07:54;;;;;;;;;6.00;5.00;;;;;23.72;47.38;101118.78;5013480;28;51146;-50
2021/06/30 06:10:20;;;;;;;;;5.25;4.00;;;;;23.73;47.85;101126.00;5013957;28;51239;-50
2021/06/30 06:12:45;;;;;;;;;4.00;4.00;;;;;23.72;47.55;101124.31;5016413;27;51140;-48
2021/06/30 06:15:11;;;;;;;;;3.00;2.75;;;;;23.71;47.45;101122.63;5015859;27;50964;-45
2021/06/30 06:17:38;;;;;;;;;4.50;4.50;;;;;23.72;47.38;101124.31;5014891;27;51129;-47
2021/06/30 06:20:08;;;;;;;;;3.00;3.00;;;;;23.72;47.33;101126.25;5030090;28;51505;-48
2021/06/30 06:22:33;;;;;;;;;5.75;2.00;;;;;23.72;47.68;101131.78;5017608;28;51220;-49
2021/06/30 06:24:59;;;;;;;;;4.00;3.00;;;;;23.72;47.75;101134.53;5014398;27;50996;-48
2021/06/30 06:27:28;;;;;;;;;4.50;4.50;;;;;23.70;47.62;101129.25;5025690;27;51301;-49
2021/06/30 06:29:54;;;;;;;;;4.25;4.00;;;;;23.70;47.34;101136.72;5014306;28;52502;-47
2021/06/30 06:32:19;;;;;;;;;4.50;4.50;;;;;23.70;47.68;101142.25;5016965;28;51033;-47
2021/06/30 06:34:46;;;;;;;;;3.50;3.50;;;;;23.69;47.26;101132.25;5015827;27;51160;-46
2021/06/30 06:37:13;;;;;;;;;4.75;4.50;;;;;23.67;47.63;101138.03;5013105;28;51160;-45
2021/06/30 06:39:39;;;;;;;;;4.00;2.25;;;;;23.68;47.17;101144.41;5009965;27;52015;-44
2021/06/30 06:42:06;;;;;;;;;3.50;3.00;;;;;23.67;47.41;101148.25;5012403;27;50957;-46
2021/06/30 06:44:37;;;;;;;;;4.25;4.00;;;;;23.66;47.38;101141.88;5012556;27;51262;-46
2021/06/30 06:47:03;;;;;;;;;4.00;4.00;;;;;23.66;47.49;101147.41;5014072;28;50952;-44
2021/06/30 06:49:28;;;;;;;;;5.25;3.50;;;;;23.65;47.39;101150.38;5015518;27;51890;-44
2021/06/30 06:51:53;;;;;;;;;6.00;4.50;;;;;23.63;47.35;101144.25;5013235;28;51160;-44
2021/06/30 06:54:19;;;;;;;;;6.00;5.25;;;;;23.63;47.70;101152.56;5013934;27;51050;-49
2021/06/30 06:56:44;;;;;;;;;4.50;4.00;;;;;23.60;47.44;101149.19;5016901;28;51157;-45
2021/06/30 06:59:09;;;;;;;;;4.25;4.00;;;;;23.59;47.95;101158.56;5023425;28;52036;-48
2021/06/30 07:01:35;;;;;;;;;7.00;5.00;;;;;23.59;47.39;101154.97;5027636;27;51494;-46
2021/06/30 07:04:00;;;;;;;;;5.00;3.75;;;;;23.58;47.55;101153.25;5028460;28;51023;-48
2021/06/30 07:06:26;;;;;;;;;3.75;2.00;;;;;23.55;47.56;101149.03;5014029;28;51289;-47
2021/06/30 07:08:51;;;;;;;;;5.25;5.25;;;;;23.55;47.41;101149.03;5014297;28;52265;-49
2021/06/30 07:11:17;;;;;;;;;5.50;4.00;;;;;23.53;47.13;101147.56;5013110;28;51195;-46
2021/06/30 07:13:42;;;;;;;;;6.50;5.25;;;;;23.51;47.22;101146.97;5013236;28;51168;-44
2021/06/30 07:16:08;;;;;;;;;4.75;4.75;;;;;23.50;47.45;101154.41;5011736;28;51291;-48
2021/06/30 07:18:35;;;;;;;;;3.75;3.75;;;;;23.50;47.22;101159.09;5011312;28;51203;-44
2021/06/30 07:21:01;;;;;;;;;3.00;2.50;;;;;23.49;47.85;101157.41;5013292;28;51277;-46
2021/06/30 07:23:27;;;;;;;;;5.25;5.00;;;;;23.50;47.29;101159.09;5014534;28;51320;-45
2021/06/30 07:25:53;;;;;;;;;5.00;5.00;;;;;23.49;47.79;101160.19;5016397;28;51321;-45
2021/06/30 07:28:19;;;;;;;;;6.00;6.00;;;;;23.49;47.54;101160.19;5023110;27;51891;-46
2021/06/30 07:30:44;;;;;;;;;5.50;5.50;;;;;23.47;47.51;101160.41;5012494;28;51155;-46
2021/06/30 07:33:09;;;;;;;;;5.25;5.25;;;;;23.47;47.66;101171.47;5010470;27;51181;-48
2021/06/30 07:35:35;;;;;;;;;6.00;5.00;;;;;23.47;47.19;101165.09;5011947;28;51534;-46
2021/06/30 07:38:00;;;;;;;;;5.75;4.75;;;;;23.47;47.24;101165.09;5010428;28;51747;-45
2021/06/30 07:40:26;;;;;;;;;5.00;5.00;;;;;23.45;47.81;101173.66;5010892;28;51061;-47
2021/06/30 07:42:51;;;;;;;;;6.00;6.00;;;;;23.45;47.76;101178.34;5013955;27;51177;-46
2021/06/30 07:45:16;;;;;;;;;5.00;5.00;;;;;23.44;47.32;101177.47;5011895;28;51133;-47
2021/06/30 07:47:42;;;;;;;;;6.50;5.00;;;;;23.42;47.74;101176.84;5011727;28;51797;-45
2021/06/30 07:50:08;;;;;;;;;6.00;6.00;;;;;23.41;47.60;101177.94;5012243;28;51531;-43
2021/06/30 07:52:33;;;;;;;;;5.25;5.00;;;;;23.40;47.42;101181.78;5013280;28;51240;-45
2021/06/30 07:55:00;;;;;;;;;7.50;7.50;;;;;23.40;47.79;101176.25;5009726;27;51210;-47
2021/06/30 07:57:25;;;;;;;;;6.00;6.00;;;;;23.40;47.53;101180.94;5014869;28;51435;-52
2021/06/30 07:59:50;;;;;;;;;7.25;7.00;;;;;23.40;47.63;101175.41;5029279;27;51109;-44
2021/06/30 08:02:16;;;;;;;;;8.25;5.75;;;;;23.40;47.39;101178.16;5014322;28;51309;-50
2021/06/30 08:04:41;;;;;;;;;8.75;8.25;;;;;23.41;47.37;101179.84;5010193;27;51808;-48
2021/06/30 08:07:07;;;;;;;;;8.50;5.75;;;;;23.41;47.55;101168.78;5011086;28;52500;-44
2021/06/30 08:09:33;;;;;;;;;4.75;4.25;;;;;23.41;47.52;101166.03;5011539;28;51122;-48
2021/06/30 08:12:05;;;;;;;;;11.50;8.00;;;;;23.41;47.89;101174.31;5025300;28;51103;-47
2021/06/30 08:14:30;;;;;;;;;5.75;5.75;;;;;23.39;47.19;101174.56;5016169;27;50972;-46
2021/06/30 08:16:56;;;;;;;;;6.00;5.50;;;;;23.39;47.30;101166.28;5014814;27;51113;-48
2021/06/30 08:19:21;;;;;;;;;8.50;5.75;;;;;23.40;47.38;101175.41;5011348;28;51202;-46
2021/06/30 08:21:47;;;;;;;;;6.00;5.75;;;;;23.40;47.37;101176.25;5008447;28;51089;-49
2021/06/30 08:24:12;;;;;;;;;6.75;6.50;;;;;23.42;47.14;101171.31;5015156;27;51027;-46
2021/06/30 08:26:37;;;;;;;;;6.25;5.25;;;;;23.43;47.49;101178.53;5016806;27;51471;-47
2021/06/30 08:29:03;;;;;;;;;6.50;6.00;;;;;23.44;47.58;101173.84;5009900;27;51370;-47
2021/06/30 08:31:29;;;;;;;;;5.50;5.50;;;;;23.45;47.17;101179.19;5012047;27;51132;-43
2021/06/30 08:33:55;;;;;;;;;6.75;6.00;;;;;23.45;47.22;101179.19;5032635;28;51277;-45
2021/06/30 08:36:20;;;;;;;;;5.25;5.25;;;;;23.44;47.58;101171.09;5012237;28;51712;-43
2021/06/30 08:38:46;;;;;;;;;7.75;6.50;;;;;23.44;47.70;101177.47;5010452;28;50986;-43
2021/06/30 08:41:11;;;;;;;;;7.25;5.75;;;;;23.45;47.22;101178.34;5010266;28;51397;-45
2021/06/30 08:43:36;;;;;;;;;8.00;7.00;;;;;23.45;47.33;101181.09;5011900;28;51352;-43
2021/06/30 08:46:03;;;;;;;;;7.25;7.00;;;;;23.44;47.18;101182.97;5013166;28;53362;-44
2021/06/30 08:48:29;;;;;;;;;6.50;6.50;;;;;23.44;47.05;101177.47;5015360;28;51110;-46
2021/06/30 08:50:57;;;;;;;;;6.75;4.50;;;;;23.44;47.42;101180.22;5019765;27;51159;-44
2021/06/30 08:53:23;;;;;;;;;8.00;6.25;;;;;23.44;47.19;101180.22;5010950;28;51295;-47
2021/06/30 08:55:48;;;;;;;;;9.25;8.00;;;;;23.44;47.22;101179.38;5013385;28;51874;-46
2021/06/30 08:58:15;;;;;;;;;8.50;7.00;;;;;23.45;46.89;101179.19;5013753;28;51192;-47
2021/06/30 09:00:42;;;;;;;;;7.75;6.25;;;;;23.45;47.21;101165.34;5015135;27;51180;-45
2021/06/30 09:03:12;;;;;;;;;6.25;5.50;;;;;23.46;46.86;101172.56;5013694;28;51435;-45
2021/06/30 09:05:59;;;;;;;;;7.75;6.50;;;;;23.48;46.78;101169.56;5012169;28;51030;-46
2021/06/30 09:08:49;;;;;;;;;5.50;5.50;;;;;23.50;46.60;101175.69;5015803;28;51160;-47
2021/06/30 09:11:15;;;;;;;;;7.50;7.50;;;;;23.51;46.90;101180.13;5010284;28;51421;-45
2021/06/30 09:13:41;;;;;;;;;7.25;7.25;;;;;23.51;46.87;101175.44;5011407;28;51461;-45
2021/06/30 09:16:07;;;;;;;;;7.50;6.50;;;;;23.49;46.74;101174.84;5012342;28;51671;-46
2021/06/30 09:18:37;;;;;;;;;6.00;6.00;;;;;23.51;46.60;101174.59;5015919;27;51045;-49
2021/06/30 09:21:15;;;;;;;;;7.50;6.75;;;;;23.51;47.16;101175.44;5012002;28;51220;-44
2021/06/30 09:24:00;;;;;;;;;8.50;7.50;;;;;23.51;46.59;101171.84;5017850;28;51414;-46
2021/06/30 09:26:28;;;;;;;;;8.00;6.00;;;;;23.51;47.02;101164.38;5021973;28;51210;-44
2021/06/30 09:29:11;;;;;;;;;8.50;7.50;;;;;23.52;46.98;101179.06;5028435;27;51458;-45
2021/06/30 09:31:41;;;;;;;;;9.00;7.50;;;;;23.51;46.93;101178.22;5016280;28;51260;-46
2021/06/30 09:34:06;;;;;;;;;6.00;5.50;;;;;23.51;46.67;101180.97;5013667;28;51002;-44
2021/06/30 09:36:43;;;;;;;;;6.75;6.50;;;;;23.52;46.81;101182.66;5013115;27;51968;-49
2021/06/30 09:39:10;;;;;;;;;9.00;8.00;;;;;23.52;46.93;101187.34;5010813;28;51523;-45
2021/06/30 09:41:38;;;;;;;;;6.50;6.25;;;;;23.53;46.88;101187.13;5014240;28;51140;-48
2021/06/30 09:44:11;;;;;;;;;7.25;7.25;;;;;23.53;46.67;101181.59;5013465;27;51346;-45
2021/06/30 09:46:38;;;;;;;;;9.50;6.00;;;;;23.53;46.93;101195.41;5023592;28;53201;-48
2021/06/30 09:49:09;;;;;;;;;8.50;6.25;;;;;23.53;46.55;101195.41;5011821;28;51601;-46
2021/06/30 09:51:36;;;;;;;;;6.50;6.50;;;;;23.54;46.92;101193.50;5013147;28;51206;-43
2021/06/30 09:54:09;;;;;;;;;7.50;7.50;;;;;23.54;47.12;101197.09;5012571;28;51797;-46
2021/06/30 09:56:39;;;;;;;;;7.00;7.00;;;;;23.54;46.87;101197.09;5013354;28;51239;-45
2021/06/30 09:59:13;;;;;;;;;9.25;8.25;;;;;23.55;46.56;101200.69;5014746;27;51847;-48
2021/06/30 10:01:39;;;;;;;;;9.25;9.25;;;;;23.56;46.84;101202.41;5014341;27;51202;-43
2021/06/30 10:04:05;;;;;;;;;8.00;8.00;;;;;23.57;46.74;101198.56;5012644;28;51370;-47
2021/06/30 10:06:30;;;;;;;;;9.00;8.00;;;;;23.56;46.66;101200.50;5014929;28;51244;-47
2021/06/30 10:08:57;;;;;;;;;11.00;9.00;;;;;23.57;46.51;101196.66;5012179;28;52127;-48
2021/06/30 10:11:25;;;;;;;;;8.00;7.75;;;;;23.57;46.73;101204.94;5013640;28;51213;-47
2021/06/30 10:13:51;;;;;;;;;10.00;7.00;;;;;23.58;46.43;101201.13;5008209;28;51039;-45
2021/06/30 10:16:18;;;;;;;;;12.25;6.75;;;;;23.59;46.49;101202.81;5015191;27;51157;-47
2021/06/30 10:18:44;;;;;;;;;9.50;9.50;;;;;23.59;46.83;101202.81;5014329;28;51225;-46
2021/06/30 10:21:11;;;;;;;;;6.50;6.50;;;;;23.59;46.56;101200.06;5009936;27;51276;-48
2021/06/30 10:23:38;;;;;;;;;8.25;8.00;;;;;23.60;46.85;101203.66;5012140;28;51480;-44
2021/06/30 10:26:03;;;;;;;;;9.00;7.50;;;;;23.61;46.55;101210.88;5010557;28;52443;-47
2021/06/30 10:28:30;;;;;;;;;8.50;6.75;;;;;23.63;46.87;101205.09;5018772;27;51137;-48
2021/06/30 10:30:56;;;;;;;;;8.25;8.25;;;;;23.64;46.64;101204.03;5013901;28;51299;-44
2021/06/30 10:33:33;;;;;;;;;8.75;7.50;;;;;23.64;46.94;101204.03;5016934;28;51381;-44
2021/06/30 10:35:59;;;;;;;;;15.50;8.50;;;;;23.64;47.01;101192.97;5034974;28;52731;-45
2021/06/30 10:38:56;;;;;;;;;8.50;8.50;;;;;23.66;46.81;101199.13;5025699;28;51201;-48
2021/06/30 10:41:50;;;;;;;;;8.25;7.00;;;;;23.66;47.03;101190.81;5010284;28;51388;-46
2021/06/30 10:44:19;;;;;;;;;7.25;7.25;;;;;23.66;47.18;101194.44;5042579;28;51022;-45
2021/06/30 10:46:45;;;;;;;;;9.25;7.75;;;;;23.69;46.90;101206.94;5012428;28;52691;-46
2021/06/30 10:49:13;;;;;;;;;11.00;8.00;;;;;23.69;47.34;101199.47;5012971;28;51018;-48
2021/06/30 10:51:50;;;;;;;;;10.25;8.50;;;;;23.70;47.27;101203.94;5015167;28;51144;-46
2021/06/30 10:54:35;;;;;;;;;8.00;8.00;;;;;23.71;47.10;101202.00;5011400;27;51288;-45
2021/06/30 10:57:20;;;;;;;;;13.25;9.00;;;;;23.71;47.24;101207.53;5013479;28;51075;-45
2021/06/30 11:00:02;;;;;;;;;9.50;7.50;;;;;23.71;47.13;101194.56;5012382;27;51580;-46
2021/06/30 11:02:31;;;;;;;;;8.75;7.75;;;;;23.71;46.84;101197.31;5037095;28;51002;-47
2021/06/30 11:05:33;;;;;;;;;7.25;6.25;;;;;23.71;46.55;101202.00;5018803;28;51061;-47
2021/06/30 11:07:58;;;;;;;;;9.00;9.00;;;;;23.71;46.80;101205.63;5045932;27;51852;-47
2021/06/30 11:10:24;;;;;;;;;10.00;8.25;;;;;23.71;46.98;101205.63;5011726;28;51051;-48
2021/06/30 11:13:00;;;;;;;;;10.25;8.25;;;;;23.72;46.81;101206.47;5012337;27;51169;-50
2021/06/30 11:15:34;;;;;;;;;11.75;8.50;;;;;23.72;46.54;101207.31;5012538;28;51289;-47
2021/06/30 11:18:00;;;;;;;;;10.00;7.00;;;;;23.73;47.02;101188.78;5012824;28;51847;-45
2021/06/30 11:20:52;;;;;;;;;8.25;7.25;;;;;23.75;46.65;101203.22;5012899;28;51473;-48
2021/06/30 11:23:23;;;;;;;;;9.25;7.75;;;;;23.76;46.73;101207.66;5013115;27;51343;-47